Terminal Aerodrome Forecast
Issued by NWS

Home | Current Version | Previous Version | Text Only | Print | Product List | Glossary On
Versions: 1 2 3 4 5 6 7 8 9 10 11 12 13 14 15 16 17 18 19 20 21 22 23 24 25
000
FTUS41 KGYX 240520
TAFAUG
TAF
KAUG 240520Z 2406/2506 24007KT P6SM BKN045
     FM240800 24008KT P6SM SCT250
     FM241600 29012G24KT P6SM FEW250
     FM250000 29010KT P6SM FEW250=

USA.gov is the U.S. government's official web portal to all federal, state and local government web resources and services.